Time;durP1;ratioP1;P1;durP2;ratioP2;P2;SDS_P1;SDS_P2;PMS_P1;PMS_P2;Temp;Humidity;BMP_temperature;BMP_pressure;BME280_temperature;BME280_humidity;BME280_pressure;Samples;Min_cycle;Max_cycle;Signal;HPM_P1;HPM_P2
2023/09/24 00:02:20;;;;;;;2.80;2.60;;;;;;;25.51;58.67;101768.36;106852;1259;25356;-66
2023/09/24 00:04:47;;;;;;;4.20;2.70;;;;;;;25.51;58.63;101774.38;107155;1250;25284;-66
2023/09/24 00:07:15;;;;;;;3.00;2.40;;;;;;;25.50;58.69;101776.21;107142;1260;25331;-64
2023/09/24 00:09:43;;;;;;;2.90;2.70;;;;;;;25.49;58.64;101778.79;107212;1263;25388;-67
2023/09/24 00:12:10;;;;;;;3.30;2.70;;;;;;;25.48;58.65;101782.05;107091;1257;25313;-66
2023/09/24 00:14:37;;;;;;;6.40;2.70;;;;;;;25.47;58.68;101778.77;107082;1260;25339;-66
2023/09/24 00:17:05;;;;;;;3.50;2.60;;;;;;;25.45;58.65;101778.02;107015;1257;22519;-64
2023/09/24 00:19:32;;;;;;;4.60;2.70;;;;;;;25.43;58.55;101781.55;106894;1272;25398;-66
2023/09/24 00:22:00;;;;;;;6.90;2.70;;;;;;;25.41;58.61;101785.73;107094;1257;25481;-65
2023/09/24 00:24:27;;;;;;;3.80;2.80;;;;;;;25.40;58.69;101792.75;106744;1263;25452;-65
2023/09/24 00:26:54;;;;;;;3.40;2.50;;;;;;;25.38;58.76;101791.42;107174;1257;25324;-66
2023/09/24 00:29:21;;;;;;;4.20;3.30;;;;;;;25.36;58.67;101794.79;107143;1265;25468;-66
2023/09/24 00:31:49;;;;;;;11.10;4.30;;;;;;;25.34;58.80;101790.29;107055;1266;25325;-65
2023/09/24 00:34:17;;;;;;;7.60;3.90;;;;;;;25.33;58.71;101789.98;107086;1264;25360;-65
2023/09/24 00:36:44;;;;;;;4.40;3.70;;;;;;;25.32;58.58;101787.08;107111;1257;23672;-65
2023/09/24 00:39:11;;;;;;;8.00;3.40;;;;;;;25.30;58.42;101786.67;107050;1257;25337;-66
2023/09/24 00:41:39;;;;;;;4.40;3.50;;;;;;;25.28;58.22;101786.81;107084;1261;25321;-66
2023/09/24 00:44:06;;;;;;;7.00;3.40;;;;;;;25.25;58.17;101783.98;107131;1257;25322;-66
2023/09/24 00:46:33;;;;;;;3.70;3.30;;;;;;;25.23;58.09;101783.58;107033;1264;25401;-66
2023/09/24 00:49:00;;;;;;;6.00;3.40;;;;;;;25.21;58.05;101777.48;106980;1256;25305;-65
2023/09/24 00:51:27;;;;;;;3.50;3.00;;;;;;;25.19;58.13;101779.25;106737;1271;25401;-67
2023/09/24 00:53:54;;;;;;;3.40;2.80;;;;;;;25.16;58.14;101775.87;107096;1263;22538;-66
2023/09/24 00:56:22;;;;;;;4.10;3.20;;;;;;;25.14;58.16;101777.25;106835;1266;22513;-67
2023/09/24 00:58:51;;;;;;;2.90;2.70;;;;;;;25.12;58.22;101780.44;106712;1275;25484;-66
2023/09/24 01:01:24;;;;;;;3.10;2.70;;;;;;;25.10;58.28;101780.20;106797;1259;25407;-68
2023/09/24 01:03:52;;;;;;;3.00;2.80;;;;;;;25.07;58.23;101777.55;106794;1267;25331;-67
2023/09/24 01:06:20;;;;;;;3.30;3.00;;;;;;;25.05;58.17;101774.47;107061;1257;25337;-66
2023/09/24 01:08:48;;;;;;;2.90;2.50;;;;;;;25.12;57.99;101773.67;107054;1267;25481;-67
2023/09/24 01:11:15;;;;;;;3.00;2.80;;;;;;;25.17;57.85;101773.32;107206;1263;23193;-66
2023/09/24 01:13:46;;;;;;;3.50;3.20;;;;;;;25.17;57.83;101769.94;107108;1272;25366;-67
2023/09/24 01:16:13;;;;;;;3.60;3.00;;;;;;;25.16;57.96;101765.56;107001;1267;25270;-67
2023/09/24 01:18:42;;;;;;;3.50;3.20;;;;;;;25.14;58.30;101767.52;107164;1257;25478;-66
2023/09/24 01:21:15;;;;;;;4.90;3.30;;;;;;;25.12;58.42;101764.63;107085;1263;25369;-66
2023/09/24 01:23:45;;;;;;;7.20;3.30;;;;;;;25.06;58.78;101763.23;107113;1263;25452;-66
2023/09/24 01:26:13;;;;;;;5.80;3.90;;;;;;;24.95;59.40;101764.84;107217;1257;25318;-68
2023/09/24 01:28:40;;;;;;;4.40;3.10;;;;;;;24.97;59.65;101766.31;107265;1254;25477;-67
2023/09/24 01:31:08;;;;;;;7.30;3.20;;;;;;;25.09;59.42;101767.67;107064;1264;25337;-67
2023/09/24 01:33:39;;;;;;;5.80;3.50;;;;;;;25.07;59.59;101766.00;107085;1256;25320;-67
2023/09/24 01:36:09;;;;;;;4.00;3.70;;;;;;;25.09;59.64;101769.20;107183;1257;22996;-66
2023/09/24 01:38:40;;;;;;;4.40;3.50;;;;;;;25.11;59.73;101768.04;107171;1264;25341;-66
2023/09/24 01:41:09;;;;;;;;;;;;;;;25.03;60.06;101766.47;107141;1263;25385;-65
2023/09/24 01:43:39;;;;;;;4.50;4.00;;;;;;;24.93;60.58;101765.68;107094;1271;25404;-66
2023/09/24 01:46:10;;;;;;;5.20;4.10;;;;;;;24.94;60.63;101769.50;107129;1254;24383;-65
2023/09/24 01:48:37;;;;;;;4.70;4.00;;;;;;;24.93;60.73;101769.81;107128;1257;22529;-68
2023/09/24 01:51:06;;;;;;;4.60;3.40;;;;;;;24.90;60.84;101767.83;107186;1254;25063;-67
2023/09/24 01:53:34;;;;;;;5.10;4.10;;;;;;;24.90;60.74;101765.18;107032;1264;25331;-66
2023/09/24 01:56:04;;;;;;;4.10;3.70;;;;;;;24.88;60.75;101764.42;107141;1254;25471;-67
2023/09/24 01:58:31;;;;;;;4.70;3.60;;;;;;;24.85;60.99;101759.34;107151;1256;24222;-67
2023/09/24 02:01:02;;;;;;;4.20;3.70;;;;;;;24.85;60.83;101760.15;107149;1258;25515;-66
2023/09/24 02:03:29;;;;;;;4.60;3.60;;;;;;;24.87;60.70;101754.73;106909;1259;24518;-67
2023/09/24 02:05:57;;;;;;;4.60;3.60;;;;;;;24.86;60.72;101754.77;106843;1257;25407;-67
2023/09/24 02:08:25;;;;;;;4.10;3.50;;;;;;;24.85;60.69;101749.87;106913;1263;25357;-66
2023/09/24 02:10:52;;;;;;;4.40;3.70;;;;;;;24.84;60.70;101752.29;107132;1263;25359;-67
2023/09/24 02:13:20;;;;;;;4.00;3.60;;;;;;;24.83;60.75;101751.43;107114;1262;25328;-65
2023/09/24 02:15:48;;;;;;;8.40;3.70;;;;;;;24.83;60.67;101749.88;107066;1270;25398;-67
2023/09/24 02:18:16;;;;;;;4.50;4.10;;;;;;;24.82;60.64;101747.27;107075;1270;25346;-65
2023/09/24 02:20:51;;;;;;;4.40;4.00;;;;;;;24.81;60.77;101744.47;107229;1254;25346;-68
2023/09/24 02:23:18;;;;;;;4.50;3.70;;;;;;;24.81;61.00;101741.98;107168;1257;25429;-67
2023/09/24 02:25:45;;;;;;;4.30;3.70;;;;;;;24.80;61.18;101743.12;106694;1270;25356;-69
2023/09/24 02:28:17;;;;;;;4.50;3.80;;;;;;;24.80;61.36;101737.60;107077;1257;25494;-67
2023/09/24 02:30:45;;;;;;;5.20;4.30;;;;;;;24.77;61.63;101737.11;106990;1255;25387;-67
2023/09/24 02:33:12;;;;;;;4.90;4.50;;;;;;;24.75;61.91;101739.42;106979;1274;25388;-69
2023/09/24 02:35:39;;;;;;;8.60;4.50;;;;;;;24.73;62.07;101741.77;107141;1258;25350;-68
2023/09/24 02:38:08;;;;;;;4.80;4.30;;;;;;;24.75;62.32;101744.72;107171;1266;25322;-67
2023/09/24 02:40:35;;;;;;;4.60;3.90;;;;;;;24.76;62.53;101748.91;107069;1250;25462;-64
2023/09/24 02:43:06;;;;;;;4.60;4.20;;;;;;;24.75;62.81;101749.16;107105;1261;25321;-65
2023/09/24 02:45:33;;;;;;;4.50;3.60;;;;;;;24.73;62.90;101749.23;106941;1267;22547;-67
2023/09/24 02:48:00;;;;;;;6.50;4.00;;;;;;;24.72;63.09;101751.09;107090;1251;24323;-65
2023/09/24 02:50:28;;;;;;;5.30;4.00;;;;;;;24.69;63.35;101749.67;107219;1257;25337;-67
2023/09/24 02:52:57;;;;;;;8.80;3.80;;;;;;;24.69;63.44;101753.61;107119;1258;25516;-67
2023/09/24 02:55:25;;;;;;;4.80;3.70;;;;;;;24.70;63.65;101754.09;107085;1254;25410;-65
2023/09/24 02:57:53;;;;;;;4.30;3.70;;;;;;;24.71;63.78;101758.96;107149;1263;25346;-66
2023/09/24 03:00:26;;;;;;;5.00;4.50;;;;;;;24.76;63.81;101760.80;107195;1251;25318;-65
2023/09/24 03:02:54;;;;;;;6.20;4.40;;;;;;;24.78;63.90;101761.17;106931;1258;23715;-65
2023/09/24 03:05:24;;;;;;;8.20;4.50;;;;;;;24.76;64.13;101753.33;106955;1257;25243;-65
2023/09/24 03:07:53;;;;;;;;;;;;;;;24.76;64.26;101752.42;107104;1261;22520;-67
2023/09/24 03:10:23;;;;;;;6.40;4.80;;;;;;;24.77;64.50;101749.88;107073;1251;22641;-66
2023/09/24 03:12:50;;;;;;;5.00;4.40;;;;;;;24.77;64.57;101756.95;107101;1251;25346;-66
2023/09/24 03:15:19;;;;;;;5.30;4.30;;;;;;;24.78;64.56;101756.04;107164;1257;25511;-67
2023/09/24 03:17:47;;;;;;;7.90;4.30;;;;;;;24.80;64.75;101761.62;106805;1261;25359;-68
2023/09/24 03:20:16;;;;;;;5.70;4.50;;;;;;;24.81;64.62;101761.52;106939;1270;25399;-66
2023/09/24 03:22:51;;;;;;;5.50;4.80;;;;;;;24.82;64.61;101761.10;107208;1251;22508;-68
2023/09/24 03:25:22;;;;;;;4.90;4.50;;;;;;;24.83;64.62;101763.73;107158;1264;25365;-67
2023/09/24 03:27:51;;;;;;;6.30;5.20;;;;;;;24.84;64.65;101764.88;107225;1261;25440;-66
2023/09/24 03:30:18;;;;;;;8.00;5.50;;;;;;;24.85;64.70;101764.29;107172;1251;22527;-65
2023/09/24 03:32:50;;;;;;;6.50;5.60;;;;;;;24.87;64.74;101771.04;107129;1258;25330;-68
2023/09/24 03:35:25;;;;;;;6.10;4.90;;;;;;;24.87;64.81;101773.76;107126;1262;22527;-68
2023/09/24 03:37:53;;;;;;;7.10;4.80;;;;;;;24.87;64.84;101773.02;106883;1257;22535;-67
2023/09/24 03:40:23;;;;;;;6.00;4.90;;;;;;;24.87;64.68;101771.07;107222;1257;25369;-66
2023/09/24 03:42:50;;;;;;;5.20;4.70;;;;;;;24.88;64.43;101775.82;106955;1264;25498;-65
2023/09/24 03:45:18;;;;;;;10.20;5.50;;;;;;;24.87;64.22;101774.60;106981;1260;25468;-67
2023/09/24 03:47:45;;;;;;;5.50;5.00;;;;;;;24.87;64.06;101777.77;107042;1254;25347;-66
2023/09/24 03:50:14;;;;;;;8.80;4.70;;;;;;;24.89;63.91;101778.73;107175;1254;25373;-66
2023/09/24 03:52:42;;;;;;;5.60;4.80;;;;;;;24.88;63.94;101784.66;107223;1250;22526;-68
2023/09/24 03:55:09;;;;;;;6.90;5.20;;;;;;;24.88;63.88;101787.83;107070;1257;25344;-66
2023/09/24 03:57:37;;;;;;;6.70;5.00;;;;;;;24.94;63.72;101790.10;106872;1265;25459;-67
2023/09/24 04:00:11;;;;;;;5.90;5.20;;;;;;;24.93;63.82;101786.80;107151;1262;25350;-67
2023/09/24 04:02:43;;;;;;;8.30;5.40;;;;;;;24.91;64.07;101793.52;107094;1261;23395;-66
2023/09/24 04:05:14;;;;;;;6.40;5.30;;;;;;;24.98;64.19;101798.69;107103;1253;22666;-66
2023/09/24 04:07:43;;;;;;;6.40;5.10;;;;;;;25.02;64.31;101803.61;107172;1256;25340;-67
2023/09/24 04:10:14;;;;;;;6.90;6.00;;;;;;;25.03;64.59;101804.60;107121;1263;25434;-67
2023/09/24 04:12:43;;;;;;;12.10;6.10;;;;;;;25.04;64.78;101803.81;106689;1257;24256;-67
2023/09/24 04:15:10;;;;;;;8.00;6.30;;;;;;;25.06;64.86;101801.40;107097;1254;25446;-67
2023/09/24 04:17:37;;;;;;;12.50;6.30;;;;;;;25.07;64.93;101803.46;107036;1254;25331;-68
2023/09/24 04:20:07;;;;;;;11.50;5.80;;;;;;;25.08;64.87;101806.06;107075;1260;22703;-68
2023/09/24 04:22:36;;;;;;;7.70;5.90;;;;;;;25.09;64.73;101810.98;106998;1267;25309;-67
2023/09/24 04:25:04;;;;;;;7.20;5.10;;;;;;;25.09;64.33;101813.81;107138;1253;25386;-68
2023/09/24 04:27:32;;;;;;;5.80;5.20;;;;;;;25.08;63.71;101810.67;106944;1258;25318;-66
2023/09/24 04:29:59;;;;;;;5.30;4.80;;;;;;;25.08;63.17;101810.88;107042;1256;25365;-66
2023/09/24 04:32:26;;;;;;;6.40;4.40;;;;;;;25.06;62.27;101816.48;106868;1262;25333;-67
2023/09/24 04:34:55;;;;;;;7.70;4.50;;;;;;;25.04;61.46;101814.65;106841;1257;25458;-68
2023/09/24 04:37:22;;;;;;;5.90;4.30;;;;;;;25.04;60.82;101817.70;107038;1257;23478;-67
2023/09/24 04:39:49;;;;;;;9.60;4.40;;;;;;;25.03;60.24;101818.45;107134;1254;25376;-66
2023/09/24 04:42:16;;;;;;;5.60;4.20;;;;;;;25.03;59.66;101823.26;107099;1255;25312;-66
2023/09/24 04:44:43;;;;;;;5.30;4.40;;;;;;;25.03;59.59;101826.97;106922;1258;25312;-66
2023/09/24 04:47:10;;;;;;;9.20;4.40;;;;;;;25.04;59.34;101829.91;107157;1260;25271;-65
2023/09/24 04:49:37;;;;;;;6.10;4.40;;;;;;;25.06;59.11;101830.68;106926;1257;25322;-67
2023/09/24 04:52:04;;;;;;;5.50;4.00;;;;;;;25.08;59.04;101836.98;107162;1253;25319;-67
2023/09/24 04:54:31;;;;;;;9.60;4.50;;;;;;;25.09;58.91;101836.05;106883;1254;24394;-65
2023/09/24 04:56:58;;;;;;;6.20;4.30;;;;;;;25.10;58.87;101834.69;107017;1254;25408;-64
2023/09/24 04:59:25;;;;;;;4.80;3.60;;;;;;;25.13;58.72;101842.70;107078;1254;25404;-64
2023/09/24 05:01:52;;;;;;;6.80;4.60;;;;;;;25.15;58.66;101839.85;107102;1257;25350;-67
2023/09/24 05:04:20;;;;;;;10.00;4.30;;;;;;;25.17;58.57;101837.08;107018;1251;22680;-67
2023/09/24 05:06:47;;;;;;;6.60;4.20;;;;;;;25.20;58.59;101839.04;107072;1254;26508;-68
2023/09/24 05:09:14;;;;;;;5.90;3.90;;;;;;;25.20;58.50;101835.42;107148;1256;25343;-66
2023/09/24 05:11:41;;;;;;;4.90;3.70;;;;;;;25.23;58.29;101836.11;107138;1251;25350;-66
2023/09/24 05:14:08;;;;;;;4.80;4.10;;;;;;;25.26;57.88;101840.73;107158;1250;25481;-64
2023/09/24 05:16:35;;;;;;;5.20;4.30;;;;;;;25.29;57.68;101836.96;106822;1256;25324;-66
2023/09/24 05:19:05;;;;;;;6.50;4.10;;;;;;;25.29;57.59;101838.05;107179;1254;24259;-66
2023/09/24 05:21:32;;;;;;;6.20;4.20;;;;;;;25.28;57.46;101838.98;107172;1254;25395;-66
2023/09/24 05:23:59;;;;;;;5.70;3.70;;;;;;;25.30;57.19;101835.69;106922;1258;25347;-64
2023/09/24 05:26:26;;;;;;;7.90;3.70;;;;;;;25.32;57.14;101836.03;107055;1251;25343;-66
2023/09/24 05:28:54;;;;;;;4.30;3.90;;;;;;;25.34;57.03;101835.42;107119;1254;25930;-67
2023/09/24 05:31:22;;;;;;;6.90;4.20;;;;;;;25.36;56.97;101838.27;107141;1257;25305;-64
2023/09/24 05:33:49;;;;;;;9.30;4.10;;;;;;;25.43;56.92;101837.27;106855;1267;25322;-65
2023/09/24 05:36:17;;;;;;;7.00;4.10;;;;;;;25.48;56.78;101836.12;107163;1254;25404;-66
2023/09/24 05:38:44;;;;;;;9.90;4.70;;;;;;;25.51;56.85;101837.98;107139;1254;25330;-65
2023/09/24 05:41:11;;;;;;;6.80;4.40;;;;;;;25.55;56.93;101844.82;106964;1264;25331;-66
2023/09/24 05:43:44;;;;;;;8.20;4.20;;;;;;;25.59;56.92;101846.33;107092;1254;25393;-64
2023/09/24 05:46:12;;;;;;;5.70;3.90;;;;;;;25.62;56.83;101847.88;107105;1257;25369;-66
2023/09/24 05:48:39;;;;;;;6.70;3.60;;;;;;;25.66;56.53;101847.81;107047;1251;25350;-65
2023/09/24 05:51:07;;;;;;;5.10;4.20;;;;;;;25.70;56.41;101847.77;107055;1254;25315;-65
2023/09/24 05:53:34;;;;;;;12.00;4.10;;;;;;;25.76;56.27;101852.67;107159;1263;23320;-65
2023/09/24 05:56:01;;;;;;;7.00;4.50;;;;;;;25.82;56.24;101854.73;107117;1254;25315;-65
2023/09/24 05:58:29;;;;;;;6.80;4.90;;;;;;;25.89;56.26;101857.80;107134;1266;25357;-64
2023/09/24 06:00:56;;;;;;;6.00;4.40;;;;;;;25.95;56.37;101860.09;107067;1260;25319;-65
2023/09/24 06:03:23;;;;;;;5.30;4.20;;;;;;;26.00;56.54;101864.50;106890;1258;25338;-66
2023/09/24 06:05:50;;;;;;;9.50;4.70;;;;;;;26.05;56.36;101870.20;107152;1250;25366;-64
2023/09/24 06:08:18;;;;;;;5.00;3.90;;;;;;;26.10;56.41;101867.77;107048;1257;25312;-65
2023/09/24 06:10:45;;;;;;;7.50;4.40;;;;;;;26.16;56.46;101865.59;106777;1259;25469;-66
2023/09/24 06:13:14;;;;;;;8.30;4.40;;;;;;;26.20;56.64;101867.06;107094;1255;25350;-67
2023/09/24 06:15:44;;;;;;;4.90;4.40;;;;;;;26.36;56.52;101866.62;107123;1254;22517;-66
2023/09/24 06:18:12;;;;;;;5.80;4.50;;;;;;;26.51;56.02;101865.41;106782;1261;23935;-67
2023/09/24 06:20:40;;;;;;;6.30;4.60;;;;;;;26.51;55.79;101868.77;106977;1250;22547;-64
2023/09/24 06:23:10;;;;;;;7.20;4.10;;;;;;;26.50;55.69;101867.04;106598;1260;25340;-67
2023/09/24 06:25:37;;;;;;;6.10;4.10;;;;;;;26.55;55.33;101872.25;106718;1263;24348;-64
2023/09/24 06:28:09;;;;;;;5.80;3.70;;;;;;;26.59;55.04;101873.33;106836;1260;25370;-63
2023/09/24 06:30:39;;;;;;;5.30;4.30;;;;;;;26.63;54.83;101871.24;106688;1259;25517;-64
2023/09/24 06:33:06;;;;;;;6.20;4.10;;;;;;;26.67;54.62;101874.89;106646;1262;25395;-64
2023/09/24 06:35:39;;;;;;;6.40;4.30;;;;;;;26.71;54.36;101880.88;106520;1270;337301;-65
2023/09/24 06:38:06;;;;;;;6.00;4.00;;;;;;;26.76;54.11;101887.98;106812;1262;25421;-67
2023/09/24 06:40:36;;;;;;;5.20;3.80;;;;;;;26.78;53.86;101888.73;106716;1263;25400;-64
2023/09/24 06:43:03;;;;;;;6.60;4.10;;;;;;;26.83;53.74;101887.33;106750;1270;25383;-65
2023/09/24 06:45:30;;;;;;;5.50;3.50;;;;;;;26.93;53.50;101882.50;106762;1259;25398;-65
2023/09/24 06:47:59;;;;;;;6.40;4.20;;;;;;;27.09;53.09;101880.38;106498;1263;25334;-65
2023/09/24 06:50:26;;;;;;;5.50;4.30;;;;;;;27.18;52.84;101886.30;106841;1255;25504;-64
2023/09/24 06:52:53;;;;;;;8.10;4.40;;;;;;;27.26;52.52;101885.38;106842;1267;25792;-65
2023/09/24 06:55:20;;;;;;;5.30;4.40;;;;;;;27.35;52.01;101884.34;106995;1269;25326;-65
2023/09/24 06:57:47;;;;;;;8.90;5.50;;;;;;;27.39;51.64;101885.67;107103;1256;25337;-67
2023/09/24 07:00:14;;;;;;;5.30;4.50;;;;;;;27.37;51.59;101889.55;107169;1254;25386;-65
2023/09/24 07:02:42;;;;;;;9.40;4.30;;;;;;;27.42;51.43;101886.74;107177;1254;25349;-66
2023/09/24 07:05:09;;;;;;;7.80;4.20;;;;;;;27.51;51.27;101889.46;107060;1266;25450;-64
2023/09/24 07:07:36;;;;;;;5.00;4.40;;;;;;;27.61;51.02;101886.33;106816;1274;25319;-66
2023/09/24 07:10:04;;;;;;;6.40;4.10;;;;;;;27.67;50.81;101887.67;107119;1254;25386;-66
2023/09/24 07:12:31;;;;;;;8.00;4.10;;;;;;;27.72;51.05;101886.42;107125;1250;22525;-65
2023/09/24 07:14:58;;;;;;;5.30;3.30;;;;;;;27.76;50.89;101891.25;107145;1261;25502;-65
2023/09/24 07:17:26;;;;;;;4.00;3.40;;;;;;;27.81;50.83;101888.20;106790;1260;25337;-64
2023/09/24 07:19:53;;;;;;;5.10;3.80;;;;;;;27.86;50.74;101891.19;106899;1263;25359;-66
2023/09/24 07:22:25;;;;;;;6.30;3.90;;;;;;;27.91;50.71;101892.98;107170;1250;25323;-66
2023/09/24 07:24:55;;;;;;;7.90;4.20;;;;;;;27.94;50.58;101892.89;106827;1259;25346;-67
2023/09/24 07:27:22;;;;;;;7.60;4.00;;;;;;;27.95;50.46;101891.20;107077;1257;25349;-67
2023/09/24 07:29:49;;;;;;;7.60;4.00;;;;;;;27.97;50.22;101888.94;107140;1257;25404;-66
2023/09/24 07:32:16;;;;;;;5.80;3.10;;;;;;;27.98;49.89;101891.35;107104;1260;25337;-67
2023/09/24 07:34:46;;;;;;;6.20;3.80;;;;;;;28.03;49.62;101891.16;107072;1251;25405;-65
2023/09/24 07:37:16;;;;;;;6.30;3.70;;;;;;;28.02;49.48;101891.58;107079;1260;25478;-66
2023/09/24 07:39:43;;;;;;;5.00;3.80;;;;;;;28.02;49.64;101890.31;106957;1266;25844;-66
2023/09/24 07:42:10;;;;;;;6.90;3.10;;;;;;;28.04;49.64;101890.39;107106;1257;25346;-65
2023/09/24 07:44:37;;;;;;;6.60;3.50;;;;;;;28.15;49.08;101890.71;107128;1250;25369;-67
2023/09/24 07:47:04;;;;;;;5.10;3.70;;;;;;;28.13;48.69;101887.69;107219;1254;25414;-65
2023/09/24 07:49:31;;;;;;;8.60;3.20;;;;;;;27.99;49.03;101883.95;107037;1254;25321;-67
2023/09/24 07:51:58;;;;;;;6.70;3.60;;;;;;;27.98;48.92;101885.66;107142;1251;25309;-66
2023/09/24 07:54:27;;;;;;;6.20;3.40;;;;;;;27.98;48.92;101883.55;107219;1254;25321;-64
2023/09/24 07:56:54;;;;;;;6.70;3.30;;;;;;;27.98;48.49;101880.52;106693;1262;22526;-65
2023/09/24 07:59:23;;;;;;;8.00;3.70;;;;;;;27.97;48.34;101883.05;106747;1259;24192;-66
2023/09/24 08:01:50;;;;;;;4.60;3.30;;;;;;;27.96;48.24;101884.54;106516;1259;25362;-65
2023/09/24 08:04:17;;;;;;;6.40;3.90;;;;;;;27.94;48.39;101888.93;106601;1262;25484;-67
2023/09/24 08:06:46;;;;;;;4.20;3.40;;;;;;;27.93;48.20;101892.77;106762;1259;25347;-66
2023/09/24 08:09:14;;;;;;;6.70;4.00;;;;;;;28.00;47.96;101895.66;106834;1256;25334;-65
2023/09/24 08:11:54;;;;;;;6.20;3.40;;;;;;;28.08;47.84;101891.45;106815;1262;25315;-64
2023/09/24 08:14:22;;;;;;;7.30;3.60;;;;;;;28.10;47.93;101897.02;106770;1256;22533;-65
2023/09/24 08:16:50;;;;;;;7.10;3.70;;;;;;;28.11;47.96;101899.27;106709;1260;25438;-63
2023/09/24 08:19:17;;;;;;;6.20;3.60;;;;;;;28.16;47.78;101902.78;106883;1257;25344;-65
2023/09/24 08:21:44;;;;;;;6.90;3.90;;;;;;;28.20;47.37;101903.42;106840;1259;25529;-66
2023/09/24 08:24:11;;;;;;;5.30;3.10;;;;;;;28.22;47.22;101901.63;106756;1259;25411;-64
2023/09/24 08:26:38;;;;;;;9.20;4.10;;;;;;;28.20;46.90;101901.29;106816;1259;25392;-65
2023/09/24 08:29:09;;;;;;;3.60;3.30;;;;;;;28.22;47.09;101899.67;106760;1260;25335;-65
2023/09/24 08:31:36;;;;;;;4.50;3.40;;;;;;;28.13;47.19;101894.50;106717;1271;26722;-66
2023/09/24 08:34:03;;;;;;;3.60;3.20;;;;;;;28.11;47.09;101894.08;106907;1256;25328;-65
2023/09/24 08:36:32;;;;;;;4.50;3.30;;;;;;;28.11;46.75;101899.09;107132;1254;25346;-65
2023/09/24 08:39:03;;;;;;;5.60;3.20;;;;;;;28.12;46.68;101898.88;107245;1254;25226;-66
2023/09/24 08:41:33;;;;;;;6.10;3.30;;;;;;;28.14;46.45;101898.48;107088;1263;22665;-65
2023/09/24 08:44:01;;;;;;;8.80;3.30;;;;;;;28.18;46.21;101898.73;107125;1250;25328;-66
2023/09/24 08:46:29;;;;;;;7.60;3.40;;;;;;;28.22;46.37;101898.95;107209;1260;22631;-66
2023/09/24 08:48:56;;;;;;;4.20;3.40;;;;;;;28.25;46.22;101900.70;106785;1266;25328;-66
2023/09/24 08:51:23;;;;;;;5.50;3.60;;;;;;;28.27;46.07;101896.92;107048;1253;22825;-66
2023/09/24 08:53:50;;;;;;;5.30;3.80;;;;;;;28.30;45.99;101894.41;106765;1262;25328;-65
2023/09/24 08:56:18;;;;;;;6.00;3.20;;;;;;;28.31;45.73;101892.86;106842;1256;25331;-66
2023/09/24 08:58:45;;;;;;;3.70;3.00;;;;;;;28.32;45.60;101889.21;106724;1258;25587;-66
2023/09/24 09:01:13;;;;;;;4.30;3.60;;;;;;;28.30;45.38;101890.26;106824;1262;25401;-66
2023/09/24 09:03:40;;;;;;;5.60;3.60;;;;;;;28.25;45.06;101891.22;106792;1262;25564;-66
2023/09/24 09:06:08;;;;;;;6.30;3.50;;;;;;;28.21;45.29;101889.59;106769;1256;25331;-64
2023/09/24 09:08:50;;;;;;;4.90;3.40;;;;;;;28.22;45.19;101886.86;106810;1257;25443;-64
2023/09/24 09:11:19;;;;;;;4.30;3.50;;;;;;;28.23;45.05;101888.02;106866;1260;25331;-66
2023/09/24 09:13:49;;;;;;;5.00;3.60;;;;;;;28.26;44.83;101882.58;106953;1256;25705;-66
2023/09/24 09:16:20;;;;;;;4.50;3.80;;;;;;;28.27;44.94;101886.11;106895;1257;25402;-65
2023/09/24 09:18:59;;;;;;;4.10;2.80;;;;;;;28.34;44.65;101889.27;106720;1261;25456;-66
2023/09/24 09:21:26;;;;;;;5.60;3.30;;;;;;;28.44;44.58;101884.17;106790;1262;22519;-64
2023/09/24 09:23:53;;;;;;;7.20;3.50;;;;;;;28.46;44.50;101879.50;106852;1260;25440;-66
2023/09/24 09:26:30;;;;;;;9.00;4.00;;;;;;;28.41;44.37;101877.41;106767;1266;25499;-64
2023/09/24 09:28:57;;;;;;;5.50;3.30;;;;;;;28.36;44.86;101875.50;107177;1266;25353;-68
2023/09/24 09:31:24;;;;;;;5.30;3.20;;;;;;;28.40;44.74;101876.82;106771;1271;25353;-67
2023/09/24 09:33:51;;;;;;;4.80;2.90;;;;;;;28.41;44.61;101875.52;107012;1253;24200;-66
2023/09/24 09:36:25;;;;;;;4.90;3.10;;;;;;;28.39;44.82;101878.81;107098;1253;26499;-65
2023/09/24 09:38:54;;;;;;;3.80;3.10;;;;;;;28.38;44.47;101884.07;106818;1256;25319;-66
2023/09/24 09:41:23;;;;;;;5.10;3.20;;;;;;;28.38;44.65;101885.18;107065;1251;22524;-64
2023/09/24 09:43:52;;;;;;;7.60;3.90;;;;;;;28.38;44.71;101882.71;107098;1254;22547;-65
2023/09/24 09:46:23;;;;;;;5.20;3.20;;;;;;;28.40;44.66;101884.64;107136;1260;22529;-64
2023/09/24 09:48:54;;;;;;;5.60;3.50;;;;;;;28.46;44.49;101882.77;107022;1257;25381;-64
2023/09/24 09:51:21;;;;;;;4.80;3.70;;;;;;;28.52;44.48;101880.88;107125;1266;25352;-65
2023/09/24 09:53:48;;;;;;;6.30;4.50;;;;;;;28.55;44.25;101878.64;107117;1263;25319;-65
2023/09/24 09:56:17;;;;;;;10.10;4.70;;;;;;;28.57;44.15;101874.80;106920;1257;22516;-66
2023/09/24 09:58:47;;;;;;;6.10;5.00;;;;;;;28.57;44.27;101875.12;107075;1250;25488;-65
2023/09/24 10:01:18;;;;;;;6.10;5.00;;;;;;;28.58;44.54;101878.41;107106;1260;25354;-67
2023/09/24 10:03:45;;;;;;;7.20;5.00;;;;;;;28.60;44.73;101884.35;107032;1256;22857;-67
2023/09/24 10:06:13;;;;;;;7.10;5.40;;;;;;;28.61;44.88;101884.22;106940;1267;23208;-67
2023/09/24 10:08:42;;;;;;;7.30;5.50;;;;;;;28.64;45.09;101890.07;106907;1262;24308;-65
2023/09/24 10:11:32;;;;;;;8.70;4.70;;;;;;;28.63;45.15;101894.09;106900;1250;25246;-68
2023/09/24 10:14:01;;;;;;;4.90;4.40;;;;;;;28.64;44.95;101892.06;106335;1262;25424;-66
2023/09/24 10:16:29;;;;;;;6.60;4.60;;;;;;;28.62;44.88;101895.96;106288;1273;22565;-66
2023/09/24 10:18:58;;;;;;;5.20;3.70;;;;;;;28.63;45.00;101892.50;106634;1266;22537;-66
2023/09/24 10:21:32;;;;;;;4.50;3.50;;;;;;;28.66;45.00;101889.75;106723;1259;22607;-63
2023/09/24 10:24:15;;;;;;;6.30;3.30;;;;;;;28.70;45.13;101888.89;106414;1257;25325;-64
2023/09/24 10:26:54;;;;;;;4.50;3.80;;;;;;;28.74;45.17;101884.95;106760;1257;25325;-66
2023/09/24 10:29:44;;;;;;;7.00;3.60;;;;;;;28.77;45.15;101877.80;106658;1262;25408;-65
2023/09/24 10:32:18;;;;;;;7.80;3.40;;;;;;;28.78;44.83;101877.00;106638;1260;25362;-63
2023/09/24 10:34:51;;;;;;;3.90;3.40;;;;;;;28.79;44.66;101869.73;106431;1265;23254;-64
2023/09/24 10:37:22;;;;;;;4.10;3.30;;;;;;;28.81;44.98;101866.16;106667;1260;25462;-66
2023/09/24 10:39:58;;;;;;;4.30;3.80;;;;;;;28.83;45.87;101863.50;106632;1260;25241;-65
2023/09/24 10:42:29;;;;;;;7.80;4.40;;;;;;;28.83;46.49;101861.95;106416;1262;25347;-64
2023/09/24 10:45:12;;;;;;;6.50;4.40;;;;;;;28.83;47.26;101858.14;106424;1262;22553;-64
2023/09/24 10:47:45;;;;;;;4.90;3.90;;;;;;;28.85;47.93;101860.34;106680;1260;25353;-64
2023/09/24 10:50:25;;;;;;;5.10;3.90;;;;;;;28.88;47.75;101863.80;106715;1272;25297;-64
2023/09/24 10:52:58;;;;;;;4.50;4.10;;;;;;;28.89;47.33;101869.29;107112;1256;25404;-64
2023/09/24 10:55:36;;;;;;;6.70;4.40;;;;;;;28.89;47.05;101869.85;107145;1250;25369;-63
2023/09/24 10:58:06;;;;;;;6.90;4.00;;;;;;;28.87;47.21;101872.27;107169;1263;25385;-67
2023/09/24 11:00:34;;;;;;;6.00;4.00;;;;;;;28.88;47.18;101871.14;107124;1266;24262;-66
2023/09/24 11:03:05;;;;;;;4.60;3.60;;;;;;;28.89;46.21;101864.25;107167;1254;25280;-65
2023/09/24 11:05:41;;;;;;;;;;;;;;;28.90;45.37;101863.50;107135;1254;25459;-66
2023/09/24 11:08:09;;;;;;;3.70;3.40;;;;;;;28.90;44.54;101865.47;106866;1267;23289;-65
2023/09/24 11:10:35;;;;;;;5.10;3.60;;;;;;;28.89;44.12;101867.65;107111;1257;23106;-63
2023/09/24 11:13:03;;;;;;;3.80;3.50;;;;;;;28.88;43.39;101865.59;107060;1257;25405;-65
2023/09/24 11:15:35;;;;;;;6.20;3.00;;;;;;;28.88;42.93;101862.96;107229;1260;25328;-63
2023/09/24 11:18:03;;;;;;;6.10;3.30;;;;;;;28.88;42.45;101861.36;107142;1263;25477;-64
2023/09/24 11:20:34;;;;;;;6.10;3.60;;;;;;;28.90;42.62;101862.08;107128;1250;25353;-63
2023/09/24 11:23:06;;;;;;;6.40;3.10;;;;;;;28.93;42.42;101858.20;107121;1260;24834;-65
2023/09/24 11:25:33;;;;;;;5.30;3.30;;;;;;;28.97;41.82;101852.74;107166;1257;22771;-64